createdAt,value
2022-11-02T00:01:55.656Z,97543.16
2022-11-02T00:04:25.361Z,97534.88
2022-11-02T00:06:53.995Z,97533.38
2022-11-02T00:09:22.570Z,97530.81
2022-11-02T00:11:51.249Z,97531.75
2022-11-02T00:14:19.814Z,97531.22
2022-11-02T00:16:48.718Z,97529.75
2022-11-02T00:19:17.201Z,97531.78
2022-11-02T00:21:47.253Z,97529.97
2022-11-02T00:24:16.079Z,97532.88
2022-11-02T00:26:44.733Z,97530.84
2022-11-02T00:29:13.432Z,97542.78
2022-11-02T00:31:42.035Z,97536.31
2022-11-02T00:34:10.766Z,97542.59
2022-11-02T00:36:39.371Z,97540.66
2022-11-02T00:39:09.390Z,97541.53
2022-11-02T00:41:38.324Z,97551.41
2022-11-02T00:44:07.122Z,97558.06
2022-11-02T00:46:36.804Z,97548.75
2022-11-02T00:49:06.121Z,97556.34
2022-11-02T00:51:36.807Z,97553.03
2022-11-02T00:54:05.682Z,97555.25
2022-11-02T00:56:39.093Z,97560.81
2022-11-02T00:59:07.829Z,97553.41
2022-11-02T01:01:36.361Z,97556.53
2022-11-02T01:04:05.495Z,97546.28
2022-11-02T01:06:34.179Z,97551.19
2022-11-02T01:09:02.473Z,97551.81
2022-11-02T01:11:30.732Z,97554.06
2022-11-02T01:14:00.388Z,97542.47
2022-11-02T01:16:29.340Z,97547.63
2022-11-02T01:18:59.473Z,97550.94
2022-11-02T01:21:27.929Z,97550.53
2022-11-02T01:23:57.439Z,97545.19
2022-11-02T01:26:26.079Z,97555.25
2022-11-02T01:28:55.224Z,97564.47
2022-11-02T01:31:24.892Z,97562.94
2022-11-02T01:33:53.167Z,97565.31
2022-11-02T01:38:57.597Z,97557.31
2022-11-02T01:41:25.885Z,97554.88
2022-11-02T01:43:58.901Z,97554.34
2022-11-02T01:46:37.618Z,97567.91
2022-11-02T01:49:10.317Z,97558.25
2022-11-02T01:51:42.748Z,97547.41
2022-11-02T01:54:16.589Z,97551.59
2022-11-02T01:56:51.729Z,97546.72
2022-11-02T01:59:25.227Z,97550.03
2022-11-02T02:01:55.453Z,97556.34
2022-11-02T02:04:25.230Z,97549.66
2022-11-02T02:06:58.039Z,97547.78
2022-11-02T02:09:27.700Z,97547.22
2022-11-02T02:11:55.999Z,97546.16
2022-11-02T02:14:25.235Z,97549.16
2022-11-02T02:17:19.737Z,97556.38
2022-11-02T02:19:58.872Z,97558.31
2022-11-02T02:23:11.674Z,97561.72
2022-11-02T02:26:36.380Z,97559.97
2022-11-02T02:29:14.960Z,97556.25
2022-11-02T02:31:55.111Z,97564.22
2022-11-02T02:34:31.738Z,97564.63
2022-11-02T02:37:06.652Z,97566.91
2022-11-02T02:39:44.916Z,97569.97
2022-11-02T02:42:21.024Z,97571.13
2022-11-02T02:45:02.336Z,97564.97
2022-11-02T02:47:34.569Z,97566.63
2022-11-02T02:50:10.817Z,97566.66
2022-11-02T02:52:40.486Z,97562.88
2022-11-02T02:55:16.169Z,97571.91
2022-11-02T02:57:47.042Z,97573.28
2022-11-02T03:00:19.643Z,97573.56
2022-11-02T03:03:01.182Z,97578.19
2022-11-02T03:05:33.913Z,97576.75
2022-11-02T03:08:09.556Z,97582.25
2022-11-02T03:10:44.072Z,97578.16
2022-11-02T03:13:36.862Z,97583.53
2022-11-02T03:16:23.906Z,97586.78
2022-11-02T03:19:03.466Z,97581.31
2022-11-02T03:21:40.849Z,97583.44
2022-11-02T03:24:15.365Z,97583.66
2022-11-02T03:26:50.567Z,97587.44
2022-11-02T03:29:27.319Z,97586.91
2022-11-02T03:32:01.408Z,97596.41
2022-11-02T03:34:41.674Z,97590.97
2022-11-02T03:37:18.268Z,97594.25
2022-11-02T03:39:49.788Z,97590.22
2022-11-02T03:42:24.334Z,97592.97
2022-11-02T03:45:03.912Z,97586.16
2022-11-02T03:47:37.406Z,97591.84
2022-11-02T03:50:14.925Z,97598.91
2022-11-02T03:52:47.121Z,97596.41
2022-11-02T03:55:21.550Z,97582.53
2022-11-02T03:57:52.757Z,97593.78
2022-11-02T04:00:30.445Z,97608.09
2022-11-02T04:03:08.017Z,97603.59
2022-11-02T04:05:42.247Z,97597.53
2022-11-02T04:08:29.401Z,97603.69
2022-11-02T04:11:20.279Z,97601.44
2022-11-02T04:14:07.830Z,97612.25
2022-11-02T04:16:40.219Z,97603.03
2022-11-02T04:19:29.159Z,97591.53
2022-11-02T04:22:26.752Z,97592.31
2022-11-02T04:25:18.674Z,97587.44
2022-11-02T04:28:09.811Z,97594.91
2022-11-02T04:30:45.014Z,97574.00
2022-11-02T04:33:32.021Z,97581.88
2022-11-02T04:36:11.616Z,97585.44
2022-11-02T04:38:40.563Z,97597.97
2022-11-02T04:41:38.969Z,97606.91
2022-11-02T04:44:13.173Z,97618.22
2022-11-02T04:46:43.698Z,97628.56
2022-11-02T04:49:14.299Z,97619.44
2022-11-02T04:51:48.724Z,97623.13
2022-11-02T04:54:19.857Z,97625.06
2022-11-02T04:56:52.981Z,97635.34
2022-11-02T04:59:24.191Z,97633.34
2022-11-02T05:01:54.296Z,97624.34
2022-11-02T05:04:23.069Z,97623.69
2022-11-02T05:06:54.547Z,97627.19
2022-11-02T05:09:25.654Z,97631.00
2022-11-02T05:11:54.318Z,97635.66
2022-11-02T05:14:22.836Z,97622.41
2022-11-02T05:16:51.383Z,97614.47
2022-11-02T05:19:20.106Z,97610.94
2022-11-02T05:21:52.181Z,97616.16
2022-11-02T05:24:21.045Z,97618.88
2022-11-02T05:26:54.019Z,97610.66
2022-11-02T05:29:25.297Z,97621.78
2022-11-02T05:31:55.012Z,97621.78
2022-11-02T05:34:24.869Z,97616.25
2022-11-02T05:36:54.586Z,97613.19
2022-11-02T05:39:22.986Z,97622.41
2022-11-02T05:41:51.709Z,97628.16
2022-11-02T05:44:20.818Z,97629.06
2022-11-02T05:46:49.138Z,97627.44
2022-11-02T05:49:17.479Z,97620.91
2022-11-02T05:51:46.429Z,97633.09
2022-11-02T05:54:16.247Z,97634.84
2022-11-02T05:56:44.853Z,97637.03
2022-11-02T05:59:13.546Z,97642.44
2022-11-02T06:01:42.262Z,97645.78
2022-11-02T06:04:11.171Z,97648.00
2022-11-02T06:06:40.194Z,97654.53
2022-11-02T06:09:09.075Z,97650.03
2022-11-02T06:11:38.707Z,97659.00
2022-11-02T06:14:06.967Z,97656.06
2022-11-02T06:16:35.583Z,97654.44
2022-11-02T06:19:04.327Z,97658.00
2022-11-02T06:21:33.124Z,97657.22
2022-11-02T06:24:01.623Z,97675.16
2022-11-02T06:26:30.238Z,97666.19
2022-11-02T06:29:00.490Z,97674.13
2022-11-02T06:31:29.251Z,97679.03
2022-11-02T06:33:57.576Z,97685.81
2022-11-02T06:36:25.895Z,97683.03
2022-11-02T06:38:54.533Z,97692.03
2022-11-02T06:41:23.124Z,97692.81
2022-11-02T06:43:51.740Z,97697.19
2022-11-02T06:46:21.763Z,97698.16
2022-11-02T06:48:50.510Z,97708.19
2022-11-02T06:51:19.145Z,97704.25
2022-11-02T06:53:47.754Z,97710.56
2022-11-02T06:56:16.087Z,97719.78
2022-11-02T06:58:44.689Z,97722.22
2022-11-02T07:01:13.861Z,97728.34
2022-11-02T07:03:43.985Z,97723.88
2022-11-02T07:06:14.337Z,97723.72
2022-11-02T07:08:43.425Z,97727.72
2022-11-02T07:11:15.661Z,97740.28
2022-11-02T07:13:44.592Z,97735.59
2022-11-02T07:16:13.227Z,97743.41
2022-11-02T07:18:43.522Z,97745.16
2022-11-02T07:21:12.471Z,97743.03
2022-11-02T07:23:41.161Z,97741.59
2022-11-02T07:26:09.759Z,97746.50
2022-11-02T07:28:38.480Z,97756.41
2022-11-02T07:31:07.115Z,97749.47
2022-11-02T07:33:35.754Z,97749.34
2022-11-02T07:36:06.912Z,97748.59
2022-11-02T07:38:35.322Z,97746.38
2022-11-02T07:41:03.999Z,97748.16
2022-11-02T07:43:32.490Z,97744.47
2022-11-02T07:46:15.055Z,97746.41
2022-11-02T07:48:43.731Z,97758.50
2022-11-02T07:51:13.433Z,97765.03
2022-11-02T07:53:42.233Z,97751.69
2022-11-02T07:56:11.750Z,97765.19
2022-11-02T07:58:40.403Z,97766.47
2022-11-02T08:01:09.016Z,97757.53
2022-11-02T08:03:37.682Z,97759.66
2022-11-02T08:06:07.138Z,97751.09
2022-11-02T08:08:37.923Z,97756.75
2022-11-02T08:11:09.630Z,97756.03
2022-11-02T08:13:39.610Z,97763.47
2022-11-02T08:16:08.753Z,97751.25
2022-11-02T08:18:37.417Z,97760.84
2022-11-02T08:21:06.033Z,97761.22
2022-11-02T08:23:35.987Z,97754.53
2022-11-02T08:26:04.536Z,97766.16
2022-11-02T08:28:39.992Z,97756.84
2022-11-02T08:31:13.206Z,97759.31
2022-11-02T08:33:41.485Z,97764.22
2022-11-02T08:36:10.589Z,97759.16
2022-11-02T08:38:40.431Z,97762.91
2022-11-02T08:41:09.115Z,97774.03
2022-11-02T08:43:37.792Z,97773.13
2022-11-02T08:46:14.679Z,97777.34
2022-11-02T08:48:44.358Z,97768.81
2022-11-02T08:51:12.848Z,97772.81
2022-11-02T08:53:47.073Z,97776.38
2022-11-02T08:56:19.011Z,97771.91
2022-11-02T08:58:47.330Z,97764.03
2022-11-02T09:01:16.034Z,97762.94
2022-11-02T09:03:44.658Z,97757.84
2022-11-02T09:06:13.238Z,97767.03
2022-11-02T09:08:42.937Z,97772.41
2022-11-02T09:11:11.274Z,97769.34
2022-11-02T09:13:40.169Z,97768.94
2022-11-02T09:16:09.513Z,97767.63
2022-11-02T09:18:39.166Z,97772.56
2022-11-02T09:21:08.151Z,97765.81
2022-11-02T09:23:36.748Z,97767.16
2022-11-02T09:26:06.572Z,97773.97
2022-11-02T09:28:35.209Z,97760.66
2022-11-02T09:31:07.441Z,97767.38
2022-11-02T09:33:39.409Z,97766.84
2022-11-02T09:36:09.660Z,97763.88
2022-11-02T09:38:38.182Z,97774.34
2022-11-02T09:41:20.289Z,97762.59
2022-11-02T09:44:00.125Z,97770.19
2022-11-02T09:46:33.616Z,97769.28
2022-11-02T09:49:06.006Z,97764.22
2022-11-02T09:51:38.326Z,97768.81
2022-11-02T09:54:17.384Z,97781.16
2022-11-02T09:56:49.031Z,97777.47
2022-11-02T09:59:21.190Z,97777.50
2022-11-02T10:01:59.393Z,97772.38
2022-11-02T10:04:56.427Z,97776.56
2022-11-02T10:07:58.059Z,97773.09
2022-11-02T10:10:35.579Z,97771.69
2022-11-02T10:13:22.401Z,97789.03
2022-11-02T10:15:56.945Z,97784.88
2022-11-02T10:18:28.910Z,97783.88
2022-11-02T10:21:01.318Z,97773.34
2022-11-02T10:23:36.559Z,97779.22
2022-11-02T10:26:05.418Z,97780.22
2022-11-02T10:28:40.825Z,97782.16
2022-11-02T10:31:28.519Z,97789.25
2022-11-02T10:34:01.291Z,97777.97
2022-11-02T10:36:41.506Z,97768.94
2022-11-02T10:39:21.432Z,97777.66
2022-11-02T10:42:18.512Z,97779.09
2022-11-02T10:45:18.571Z,97778.28
2022-11-02T10:48:03.378Z,97782.81
2022-11-02T10:50:48.087Z,97778.44
2022-11-02T10:56:17.160Z,97773.72
2022-11-02T10:58:58.393Z,97775.28
2022-11-02T11:01:30.270Z,97781.97
2022-11-02T11:04:01.854Z,97776.97
2022-11-02T11:06:32.666Z,97780.25
2022-11-02T11:09:05.879Z,97776.75
2022-11-02T11:11:38.262Z,97772.56
2022-11-02T11:20:29.601Z,97766.53
2022-11-02T11:23:22.132Z,97767.31
2022-11-02T11:26:01.027Z,97759.94
2022-11-02T11:28:33.863Z,97763.09
2022-11-02T11:31:13.176Z,97764.94
2022-11-02T11:33:54.773Z,97755.09
2022-11-02T11:36:28.595Z,97749.69
2022-11-02T11:39:02.159Z,97753.75
2022-11-02T11:41:32.783Z,97756.16
2022-11-02T11:44:03.530Z,97761.88
2022-11-02T11:46:42.566Z,97745.81
2022-11-02T11:49:36.347Z,97748.78
2022-11-02T11:52:25.648Z,97756.50
2022-11-02T11:55:00.479Z,97755.56
2022-11-02T11:57:32.089Z,97737.63
2022-11-02T12:00:05.185Z,97749.16
2022-11-02T12:02:42.841Z,97748.38
2022-11-02T12:05:17.144Z,97750.53
2022-11-02T12:08:23.959Z,97751.88
2022-11-02T12:11:24.048Z,97747.97
2022-11-02T12:14:18.306Z,97746.78
2022-11-02T12:17:15.656Z,97751.56
2022-11-02T12:20:07.522Z,97741.69
2022-11-02T12:22:51.464Z,97737.31
2022-11-02T12:25:32.439Z,97739.88
2022-11-02T12:28:21.180Z,97728.28
2022-11-02T12:31:02.436Z,97734.34
2022-11-02T12:33:52.656Z,97737.28
2022-11-02T12:37:11.210Z,97743.09
2022-11-02T12:39:53.365Z,97741.69
2022-11-02T12:42:28.471Z,97736.03
2022-11-02T12:45:18.683Z,97743.25
2022-11-02T12:47:59.191Z,97736.16
2022-11-02T12:50:48.781Z,97733.66
2022-11-02T12:53:38.031Z,97735.81
2022-11-02T12:56:17.816Z,97731.94
2022-11-02T12:58:46.702Z,97730.13
2022-11-02T13:01:23.326Z,97723.03
2022-11-02T13:03:59.179Z,97723.66
2022-11-02T13:06:32.672Z,97725.34
2022-11-02T13:09:09.518Z,97729.38
2022-11-02T13:11:44.011Z,97724.06
2022-11-02T13:14:19.467Z,97718.91
2022-11-02T13:16:54.021Z,97722.97
2022-11-02T13:19:34.196Z,97708.91
2022-11-02T13:22:05.641Z,97713.00
2022-11-02T13:24:40.271Z,97706.31
2022-11-02T13:27:36.397Z,97713.66
2022-11-02T13:30:15.251Z,97708.03
2022-11-02T13:32:51.236Z,97708.78
2022-11-02T13:35:25.964Z,97711.59
2022-11-02T13:38:03.133Z,97707.06
2022-11-02T13:40:39.255Z,97703.63
2022-11-02T13:43:53.542Z,97701.81
2022-11-02T13:46:40.410Z,97693.38
2022-11-02T13:49:17.997Z,97696.69
2022-11-02T13:51:50.954Z,97701.97
2022-11-02T13:54:26.416Z,97699.47
2022-11-02T13:56:57.921Z,97697.91
2022-11-02T13:59:33.561Z,97694.81
2022-11-02T14:02:05.747Z,97686.31
2022-11-02T14:04:41.168Z,97690.06
2022-11-02T14:07:23.716Z,97688.53
2022-11-02T14:09:57.785Z,97691.97
2022-11-02T14:12:44.462Z,97699.28
2022-11-02T14:15:49.769Z,97690.75
2022-11-02T14:18:31.912Z,97689.34
2022-11-02T14:21:22.645Z,97691.81
2022-11-02T14:23:51.207Z,97687.94
2022-11-02T14:26:34.237Z,97700.50
2022-11-02T14:29:49.267Z,97693.56
2022-11-02T14:32:34.723Z,97693.91
2022-11-02T14:35:27.672Z,97684.09
2022-11-02T14:38:40.397Z,97681.13
2022-11-02T14:41:34.214Z,97678.91
2022-11-02T14:44:33.817Z,97679.28
2022-11-02T14:47:09.413Z,97683.19
2022-11-02T14:49:41.536Z,97686.13
2022-11-02T14:52:28.956Z,97692.19
2022-11-02T14:55:05.735Z,97689.75
2022-11-02T14:57:39.307Z,97679.69
2022-11-02T15:00:22.504Z,97677.94
2022-11-02T15:02:53.317Z,97674.13
2022-11-02T15:05:28.841Z,97673.94
2022-11-02T15:08:03.509Z,97660.66
2022-11-02T15:10:44.988Z,97672.47
2022-11-02T15:13:37.534Z,97674.53
2022-11-02T15:16:38.698Z,97684.97
2022-11-02T15:19:46.198Z,97681.25
2022-11-02T15:22:39.549Z,97678.78
2022-11-02T15:25:19.831Z,97686.56
2022-11-02T15:27:52.447Z,97686.34
2022-11-02T15:30:27.023Z,97688.63
2022-11-02T15:33:05.108Z,97682.47
2022-11-02T15:35:38.025Z,97684.88
2022-11-02T15:38:17.373Z,97677.88
2022-11-02T15:41:00.910Z,97682.78
2022-11-02T15:43:58.872Z,97682.94
2022-11-02T15:46:44.763Z,97673.84
2022-11-02T15:49:41.854Z,97686.22
2022-11-02T15:52:24.417Z,97685.19
2022-11-02T15:55:16.132Z,97680.75
2022-11-02T15:57:59.031Z,97687.31
2022-11-02T16:00:31.036Z,97676.25
2022-11-02T16:03:04.041Z,97674.00
2022-11-02T16:05:42.876Z,97677.28
2022-11-02T16:08:24.608Z,97674.97
2022-11-02T16:11:05.781Z,97686.91
2022-11-02T16:13:48.734Z,97683.63
2022-11-02T16:16:24.881Z,97678.78
2022-11-02T16:18:55.099Z,97680.50
2022-11-02T16:21:23.497Z,97685.22
2022-11-02T16:23:59.402Z,97683.69
2022-11-02T16:26:30.913Z,97683.13
2022-11-02T16:29:03.955Z,97685.41
2022-11-02T16:31:32.389Z,97679.44
2022-11-02T16:34:03.849Z,97685.28
2022-11-02T16:36:37.701Z,97685.00
2022-11-02T16:39:17.938Z,97692.81
2022-11-02T16:41:50.743Z,97693.78
2022-11-02T16:44:26.222Z,97694.34
2022-11-02T16:46:58.499Z,97685.31
2022-11-02T16:49:28.269Z,97687.72
2022-11-02T16:51:59.528Z,97686.13
2022-11-02T16:54:30.996Z,97694.72
2022-11-02T16:57:11.291Z,97699.75
2022-11-02T16:59:54.792Z,97698.69
2022-11-02T17:02:32.725Z,97698.66
2022-11-02T17:05:06.018Z,97690.91
2022-11-02T17:07:40.288Z,97684.56
2022-11-02T17:10:19.308Z,97691.66
2022-11-02T17:12:49.795Z,97685.75
2022-11-02T17:15:23.188Z,97688.78
2022-11-02T17:18:12.164Z,97689.13
2022-11-02T17:20:41.179Z,97687.69
2022-11-02T17:23:11.968Z,97684.78
2022-11-02T17:25:41.792Z,97683.25
2022-11-02T17:28:43.536Z,97684.25
2022-11-02T17:31:21.054Z,97677.34
2022-11-02T17:33:50.444Z,97686.53
2022-11-02T17:36:19.667Z,97683.59
2022-11-02T17:38:48.334Z,97679.88
2022-11-02T17:41:36.649Z,97683.91
2022-11-02T17:44:07.420Z,97675.56
2022-11-02T17:46:39.366Z,97677.25
2022-11-02T17:49:15.554Z,97676.59
2022-11-02T17:51:44.517Z,97672.94
2022-11-02T17:54:15.236Z,97675.38
2022-11-02T17:56:44.026Z,97674.22
2022-11-02T17:59:12.374Z,97677.16
2022-11-02T18:01:42.307Z,97673.06
2022-11-02T18:04:11.034Z,97682.84
2022-11-02T18:06:39.688Z,97683.03
2022-11-02T18:09:18.957Z,97675.81
2022-11-02T18:11:47.732Z,97670.78
2022-11-02T18:14:17.066Z,97675.84
2022-11-02T18:16:47.912Z,97670.00
2022-11-02T18:19:16.912Z,97665.31
2022-11-02T18:21:45.563Z,97661.09
2022-11-02T18:24:14.269Z,97658.53
2022-11-02T18:26:45.891Z,97654.88
2022-11-02T18:29:16.006Z,97649.47
2022-11-02T18:31:45.831Z,97652.34
2022-11-02T18:34:14.423Z,97648.38
2022-11-02T18:36:43.194Z,97654.28
2022-11-02T18:39:11.906Z,97647.16
2022-11-02T18:41:42.383Z,97640.00
2022-11-02T18:44:15.232Z,97640.81
2022-11-02T18:46:44.460Z,97636.22
2022-11-02T18:49:14.581Z,97631.56
2022-11-02T18:51:45.859Z,97633.50
2022-11-02T18:54:15.050Z,97634.13
2022-11-02T18:56:43.749Z,97631.34
2022-11-02T18:59:12.606Z,97630.63
2022-11-02T19:01:41.371Z,97630.47
2022-11-02T19:04:17.011Z,97622.53
2022-11-02T19:07:05.181Z,97608.38
2022-11-02T19:09:35.759Z,97611.28
2022-11-02T19:12:09.763Z,97602.34
2022-11-02T19:14:40.146Z,97608.41
2022-11-02T19:17:11.056Z,97609.22
2022-11-02T19:19:41.000Z,97604.31
2022-11-02T19:22:14.222Z,97601.38
2022-11-02T19:24:43.144Z,97591.88
2022-11-02T19:27:15.405Z,97600.75
2022-11-02T19:29:44.165Z,97601.78
2022-11-02T19:32:12.932Z,97596.91
2022-11-02T19:34:42.005Z,97598.81
2022-11-02T19:37:12.507Z,97596.34
2022-11-02T19:39:41.127Z,97602.34
2022-11-02T19:42:09.812Z,97613.66
2022-11-02T19:44:42.709Z,97612.63
2022-11-02T19:47:11.991Z,97615.78
2022-11-02T19:49:40.617Z,97610.44
2022-11-02T19:52:09.310Z,97604.78
2022-11-02T19:54:39.360Z,97599.97
2022-11-02T19:57:08.027Z,97600.75
2022-11-02T19:59:36.685Z,97596.78
2022-11-02T20:02:05.002Z,97600.69
2022-11-02T20:04:38.013Z,97586.63
2022-11-02T20:07:09.783Z,97586.59
2022-11-02T20:09:39.691Z,97582.31
2022-11-02T20:12:08.666Z,97586.63
2022-11-02T20:14:38.309Z,97585.59
2022-11-02T20:19:55.762Z,97586.78
2022-11-02T20:22:24.508Z,97578.94
2022-11-02T20:24:54.142Z,97591.09
2022-11-02T20:27:22.464Z,97588.06
2022-11-02T20:29:51.135Z,97583.97
2022-11-02T20:32:20.406Z,97575.72
2022-11-02T20:34:48.707Z,97568.59
2022-11-02T20:37:17.416Z,97566.88
2022-11-02T20:39:46.049Z,97571.50
2022-11-02T20:42:15.709Z,97575.66
2022-11-02T20:44:49.122Z,97578.16
2022-11-02T20:47:17.397Z,97579.88
2022-11-02T20:49:50.380Z,97577.44
2022-11-02T20:52:21.932Z,97581.59
2022-11-02T20:54:50.375Z,97576.94
2022-11-02T20:57:22.051Z,97580.13
2022-11-02T20:59:50.623Z,97578.09
2022-11-02T21:02:22.228Z,97581.00
2022-11-02T21:04:50.856Z,97576.97
2022-11-02T21:07:19.649Z,97571.22
2022-11-02T21:09:47.962Z,97575.16
2022-11-02T21:12:34.436Z,97563.44
2022-11-02T21:15:04.635Z,97565.06
2022-11-02T21:17:33.238Z,97568.13
2022-11-02T21:20:28.594Z,97563.25
2022-11-02T21:22:51.794Z,97561.84
2022-11-02T21:25:20.202Z,97564.00
2022-11-02T21:27:50.645Z,97558.34
2022-11-02T21:30:21.220Z,97568.25
2022-11-02T21:32:51.893Z,97576.03
2022-11-02T21:35:21.353Z,97576.69
2022-11-02T21:37:49.951Z,97573.16
2022-11-02T21:40:19.002Z,97574.72
2022-11-02T21:42:47.603Z,97570.91
2022-11-02T21:45:18.186Z,97563.59
2022-11-02T21:47:50.984Z,97566.34
2022-11-02T21:50:19.819Z,97557.88
2022-11-02T21:52:48.428Z,97553.25
2022-11-02T21:55:17.515Z,97550.06
2022-11-02T21:57:46.123Z,97551.41
2022-11-02T22:00:15.752Z,97550.34
2022-11-02T22:02:43.472Z,97552.28
2022-11-02T22:05:33.625Z,97555.38
2022-11-02T22:08:20.323Z,97551.16
2022-11-02T22:10:48.627Z,97536.84
2022-11-02T22:13:35.187Z,97545.53
2022-11-02T22:16:16.986Z,97543.09
2022-11-02T22:18:47.493Z,97538.50
2022-11-02T22:21:19.094Z,97542.28
2022-11-02T22:23:48.988Z,97537.91
2022-11-02T22:26:19.318Z,97542.72
2022-11-02T22:28:48.563Z,97534.91
2022-11-02T22:31:19.250Z,97538.13
2022-11-02T22:33:50.366Z,97541.22
2022-11-02T22:36:23.200Z,97532.31
2022-11-02T22:38:51.503Z,97536.41
2022-11-02T22:41:23.257Z,97537.53
2022-11-02T22:43:54.018Z,97525.44
2022-11-02T22:46:24.402Z,97519.94
2022-11-02T22:48:54.888Z,97520.19
2022-11-02T22:51:26.749Z,97518.31
2022-11-02T22:53:55.834Z,97519.16
2022-11-02T22:56:25.296Z,97515.63
2022-11-02T22:58:53.949Z,97514.31
2022-11-02T23:01:24.831Z,97517.06
2022-11-02T23:03:53.795Z,97507.38
2022-11-02T23:06:24.995Z,97507.47
2022-11-02T23:08:59.608Z,97504.81
2022-11-02T23:11:29.887Z,97512.72
2022-11-02T23:14:00.859Z,97504.88
2022-11-02T23:16:32.073Z,97502.72
2022-11-02T23:19:27.130Z,97503.56
2022-11-02T23:22:17.086Z,97495.19
2022-11-02T23:25:05.314Z,97502.53
2022-11-02T23:27:55.575Z,97505.81
2022-11-02T23:30:41.955Z,97498.25
2022-11-02T23:33:10.721Z,97503.91
2022-11-02T23:35:56.868Z,97496.91
2022-11-02T23:38:48.299Z,97502.03
2022-11-02T23:41:17.773Z,97493.91
2022-11-02T23:43:46.652Z,97492.81
2022-11-02T23:46:17.529Z,97488.78
2022-11-02T23:48:49.617Z,97489.84
2022-11-02T23:51:38.400Z,97479.28
2022-11-02T23:54:26.479Z,97474.97
2022-11-02T23:56:55.081Z,97469.81
2022-11-02T23:59:23.389Z,97473.84
